MSC Stella — H8PA — position and weather

sailwx.info

Track history (hours):
 
Tides and Currents Weather Stations Pressure Air Temp Water Temp Dewpoint Dewpoint Depression Visibility Wind Speed Wind Dir Waves Ship Positions

MSC Stella

Last reported at 2018-Feb-23 08:08 UTC. Time now 2018-Feb-23 19:46 UTC.
Position S 37°60' E 149°37'.

Length 304 m; draft 13 m.

Type: Ship (hazmat cat A). MMSI: 352983000.

Date/timePositionNaut miles runAvg speedWind from/ knotsBaromVisibWave heightAir tempDewpointWater temp
2018-Feb-23 08:08S 37°60' E 149°37'217.7
2018-Feb-23 08:00S 38°01' E 149°35'917.6
2018-Feb-23 07:30S 38°06' E 149°26'917.4
2018-Feb-23 07:00S 38°11' E 149°17'917.4
2018-Feb-23 06:30S 38°16' E 149°08'917.8
2018-Feb-23 06:00S 38°22' E 148°59'917.8
2018-Feb-23 05:30S 38°27' E 148°50'917.7
2018-Feb-23 05:00S 38°32' E 148°41'918.5
2018-Feb-23 04:30S 38°37' E 148°31'918.1
2018-Feb-23 04:00S 38°43' E 148°22'917.1
2018-Feb-23 03:30S 38°47' E 148°12'917.0
2018-Feb-23 03:00S 38°50' E 148°02'816.9
2018-Feb-23 02:30S 38°53' E 147°52'4617.4
2018-Feb-22 23:52S 39°09' E 146°57'617.7
2018-Feb-22 23:30S 39°11' E 146°49'917.8
2018-Feb-22 23:01S 39°15' E 146°38'917.6
2018-Feb-22 22:30S 39°16' E 146°27'918.1
2018-Feb-22 22:01S 39°16' E 146°15'917.8
2018-Feb-22 21:30S 39°16' E 146°04'1517.5
2018-Feb-22 20:37S 39°16' E 145°44'217.5
2018-Feb-22 20:30S 39°16' E 145°41'1117.3
2018-Feb-22 19:52S 39°16' E 145°27'7417.7
2018-Feb-22 15:41S 39°12' E 143°51'417.8
2018-Feb-22 15:28S 39°12' E 143°47'918.0
2018-Feb-22 14:58S 39°11' E 143°35'  
Track history (hours):
 
Tides and Currents Weather Stations Pressure Air Temp Water Temp Dewpoint Dewpoint Depression Visibility Wind Speed Wind Dir Waves Ship Positions

MSC Stella

Last reported at 2018-Feb-23 08:08 UTC. Time now 2018-Feb-23 19:46 UTC.
Position S 37°60' E 149°37'.

Length 304 m; draft 13 m.

Type: Ship (hazmat cat A). MMSI: 352983000.

Date/timePositionNaut miles runAvg speedWind from/ knotsBaromVisibWave heightAir tempDewpointWater temp
2018-Feb-23 08:08S 37°60' E 149°37'217.7
2018-Feb-23 08:00S 38°01' E 149°35'917.6
2018-Feb-23 07:30S 38°06' E 149°26'917.4
2018-Feb-23 07:00S 38°11' E 149°17'917.4
2018-Feb-23 06:30S 38°16' E 149°08'917.8
2018-Feb-23 06:00S 38°22' E 148°59'917.8
2018-Feb-23 05:30S 38°27' E 148°50'917.7
2018-Feb-23 05:00S 38°32' E 148°41'918.5
2018-Feb-23 04:30S 38°37' E 148°31'918.1
2018-Feb-23 04:00S 38°43' E 148°22'917.1
2018-Feb-23 03:30S 38°47' E 148°12'917.0
2018-Feb-23 03:00S 38°50' E 148°02'816.9
2018-Feb-23 02:30S 38°53' E 147°52'4617.4
2018-Feb-22 23:52S 39°09' E 146°57'617.7
2018-Feb-22 23:30S 39°11' E 146°49'917.8
2018-Feb-22 23:01S 39°15' E 146°38'917.6
2018-Feb-22 22:30S 39°16' E 146°27'918.1
2018-Feb-22 22:01S 39°16' E 146°15'917.8
2018-Feb-22 21:30S 39°16' E 146°04'1517.5
2018-Feb-22 20:37S 39°16' E 145°44'217.5
2018-Feb-22 20:30S 39°16' E 145°41'1117.3
2018-Feb-22 19:52S 39°16' E 145°27'7417.7
2018-Feb-22 15:41S 39°12' E 143°51'417.8
2018-Feb-22 15:28S 39°12' E 143°47'918.0
2018-Feb-22 14:58S 39°11' E 143°35'  

Dump ship's entire track history